Irkutsk Airport
UIII : now visible

Airfield :











YOU CAN JOIN US ON...

 
LOGIN :

Register | Disclaimer

   EN    FR    IT 

 









Legend :    VFR   Marginal VFR   IFR   Intensive IFR   Very Intensive IFR
Visi :
Ceiling :
>= 8 km
>= 3000ft
5 to 8 km
1000 to 3000 ft
1500m to 5 km
500 to 1000 ft
800 to 1500m
200 to 500 ft
< 800m
< 200 ft
Symbols :   Thunderstorms  Fog  Heavy snow  Heavy precipitations  Wind > 20 kt






- Airport Elevation : 1675 ft
- IATA code : IKT


UIII - Irkutsk

CURRENT METAR :
  • 260730Z 22002MPS 180V250 CAVOK M10/M15 Q1016 R30/810550 NOSIG RMK QFE717/0956

EXPIRED METARs :
  • 260700Z VRB01MPS CAVOK M10/M15 Q1016 R30/810550 NOSIG RMK QFE717/0956
  • 260630Z 23002MPS 150V300 CAVOK M11/M16 Q1016 R30/810550 NOSIG RMK QFE717/0957
  • 260600Z 18004MPS CAVOK M10/M16 Q1016 R12/810550 NOSIG RMK QFE720/0960
  • 260530Z 18003MPS CAVOK M11/M16 Q1017 R12/810550 NOSIG RMK QFE720/0960
  • 260500Z 19003MPS CAVOK M11/M17 Q1017 R12/810550 NOSIG RMK QFE720/0961
  • 260430Z 17002MPS CAVOK M11/M18 Q1017 R12/810550 NOSIG RMK QFE721/0961

TAF TAF UIII
Valid from the 26 at 06:00 until the 27 at 06:00 UTC


260500Z 2606/2706 16003MPS CAVOK



MET'MAP, your aeronautical weather chart ! - Copyright ORBIFLY December 2007 - Disclaimer

ORBIFLY MET'MAP TEAM :

Programming & Development : Alexandra Zaïnal
Concept & original design : Baudouin d'Aumeries
Assistance for programming : Marc-Olivier Méhu
Technical & hardware support : Manuel Goepfert

Contact : metmap@orbifly.com




SOURCES & CREDITS :

   NOAA       Earth
Advisory